sensor_id;sensor_type;location;lat;lon;timestamp;temperature;humidity
58809;DHT22;44579;51.672;7.834;2022-07-06T00:01:47;18.00;59.40
58809;DHT22;44579;51.672;7.834;2022-07-06T00:04:14;17.90;59.50
58809;DHT22;44579;51.672;7.834;2022-07-06T00:06:41;17.90;59.70
58809;DHT22;44579;51.672;7.834;2022-07-06T00:09:07;17.90;59.70
58809;DHT22;44579;51.672;7.834;2022-07-06T00:11:34;17.80;59.70
58809;DHT22;44579;51.672;7.834;2022-07-06T00:14:01;17.80;59.90
58809;DHT22;44579;51.672;7.834;2022-07-06T00:16:28;17.70;60.20
58809;DHT22;44579;51.672;7.834;2022-07-06T00:18:55;17.60;60.60
58809;DHT22;44579;51.672;7.834;2022-07-06T00:21:22;17.60;61.00
58809;DHT22;44579;51.672;7.834;2022-07-06T00:23:49;17.60;60.90
58809;DHT22;44579;51.672;7.834;2022-07-06T00:26:16;17.60;60.70
58809;DHT22;44579;51.672;7.834;2022-07-06T00:28:43;17.60;60.50
58809;DHT22;44579;51.672;7.834;2022-07-06T00:31:10;17.50;60.40
58809;DHT22;44579;51.672;7.834;2022-07-06T00:33:37;17.50;60.50
58809;DHT22;44579;51.672;7.834;2022-07-06T00:36:04;17.50;60.20
58809;DHT22;44579;51.672;7.834;2022-07-06T00:38:31;17.50;60.20
58809;DHT22;44579;51.672;7.834;2022-07-06T00:40:57;17.40;60.30
58809;DHT22;44579;51.672;7.834;2022-07-06T00:43:24;17.20;60.80
58809;DHT22;44579;51.672;7.834;2022-07-06T00:45:51;17.20;61.20
58809;DHT22;44579;51.672;7.834;2022-07-06T00:48:18;17.10;62.30
58809;DHT22;44579;51.672;7.834;2022-07-06T00:50:45;17.00;61.60
58809;DHT22;44579;51.672;7.834;2022-07-06T00:53:13;17.00;61.80
58809;DHT22;44579;51.672;7.834;2022-07-06T00:55:40;16.90;62.30
58809;DHT22;44579;51.672;7.834;2022-07-06T00:58:08;16.70;62.80
58809;DHT22;44579;51.672;7.834;2022-07-06T01:00:36;16.70;62.80
58809;DHT22;44579;51.672;7.834;2022-07-06T01:03:03;16.70;62.90
58809;DHT22;44579;51.672;7.834;2022-07-06T01:05:30;16.60;63.20
58809;DHT22;44579;51.672;7.834;2022-07-06T01:07:57;16.60;63.20
58809;DHT22;44579;51.672;7.834;2022-07-06T01:10:24;16.60;63.00
58809;DHT22;44579;51.672;7.834;2022-07-06T01:12:51;16.70;62.60
58809;DHT22;44579;51.672;7.834;2022-07-06T01:15:20;16.70;62.80
58809;DHT22;44579;51.672;7.834;2022-07-06T01:17:48;16.70;62.60
58809;DHT22;44579;51.672;7.834;2022-07-06T01:20:20;16.70;62.40
58809;DHT22;44579;51.672;7.834;2022-07-06T01:22:49;16.80;62.20
58809;DHT22;44579;51.672;7.834;2022-07-06T01:25:16;16.90;61.90
58809;DHT22;44579;51.672;7.834;2022-07-06T01:27:44;17.00;61.60
58809;DHT22;44579;51.672;7.834;2022-07-06T01:30:16;17.10;62.10
58809;DHT22;44579;51.672;7.834;2022-07-06T01:32:43;17.10;61.00
58809;DHT22;44579;51.672;7.834;2022-07-06T01:35:11;17.10;61.40
58809;DHT22;44579;51.672;7.834;2022-07-06T01:37:39;17.10;61.40
58809;DHT22;44579;51.672;7.834;2022-07-06T01:40:09;17.00;61.60
58809;DHT22;44579;51.672;7.834;2022-07-06T01:42:36;16.80;62.20
58809;DHT22;44579;51.672;7.834;2022-07-06T01:45:04;16.70;62.60
58809;DHT22;44579;51.672;7.834;2022-07-06T01:47:31;16.70;62.60
58809;DHT22;44579;51.672;7.834;2022-07-06T01:50:00;16.70;62.50
58809;DHT22;44579;51.672;7.834;2022-07-06T01:52:30;16.70;62.40
58809;DHT22;44579;51.672;7.834;2022-07-06T01:54:57;16.70;62.50
58809;DHT22;44579;51.672;7.834;2022-07-06T01:57:24;16.60;62.40
58809;DHT22;44579;51.672;7.834;2022-07-06T01:59:52;16.60;62.30
58809;DHT22;44579;51.672;7.834;2022-07-06T02:02:19;16.60;62.40
58809;DHT22;44579;51.672;7.834;2022-07-06T02:04:45;16.60;62.30
58809;DHT22;44579;51.672;7.834;2022-07-06T02:07:12;16.60;62.30
58809;DHT22;44579;51.672;7.834;2022-07-06T02:09:39;16.50;62.20
58809;DHT22;44579;51.672;7.834;2022-07-06T02:12:06;16.50;62.00
58809;DHT22;44579;51.672;7.834;2022-07-06T02:14:34;16.50;61.70
58809;DHT22;44579;51.672;7.834;2022-07-06T02:17:01;16.50;61.60
58809;DHT22;44579;51.672;7.834;2022-07-06T02:19:28;16.50;61.80
58809;DHT22;44579;51.672;7.834;2022-07-06T02:21:55;16.50;62.00
58809;DHT22;44579;51.672;7.834;2022-07-06T02:24:22;16.40;62.00
58809;DHT22;44579;51.672;7.834;2022-07-06T02:26:49;16.50;62.00
58809;DHT22;44579;51.672;7.834;2022-07-06T02:29:16;16.50;61.80
58809;DHT22;44579;51.672;7.834;2022-07-06T02:31:43;16.50;61.60
58809;DHT22;44579;51.672;7.834;2022-07-06T02:34:10;16.40;61.50
58809;DHT22;44579;51.672;7.834;2022-07-06T02:36:37;16.40;61.60
58809;DHT22;44579;51.672;7.834;2022-07-06T02:39:04;16.20;61.90
58809;DHT22;44579;51.672;7.834;2022-07-06T02:41:31;16.10;62.40
58809;DHT22;44579;51.672;7.834;2022-07-06T02:43:58;16.10;62.40
58809;DHT22;44579;51.672;7.834;2022-07-06T02:46:25;16.00;62.40
58809;DHT22;44579;51.672;7.834;2022-07-06T02:48:51;16.00;62.50
58809;DHT22;44579;51.672;7.834;2022-07-06T02:51:18;16.00;62.40
58809;DHT22;44579;51.672;7.834;2022-07-06T02:53:46;16.00;62.40
58809;DHT22;44579;51.672;7.834;2022-07-06T02:56:12;16.00;62.10
58809;DHT22;44579;51.672;7.834;2022-07-06T02:58:40;16.00;61.90
58809;DHT22;44579;51.672;7.834;2022-07-06T03:01:07;15.90;61.80
58809;DHT22;44579;51.672;7.834;2022-07-06T03:03:34;15.90;61.70
58809;DHT22;44579;51.672;7.834;2022-07-06T03:06:02;15.80;61.70
58809;DHT22;44579;51.672;7.834;2022-07-06T03:08:32;15.80;61.80
58809;DHT22;44579;51.672;7.834;2022-07-06T03:11:01;15.80;61.80
58809;DHT22;44579;51.672;7.834;2022-07-06T03:13:28;15.80;61.80
58809;DHT22;44579;51.672;7.834;2022-07-06T03:15:56;15.80;61.90
58809;DHT22;44579;51.672;7.834;2022-07-06T03:18:23;15.70;61.80
58809;DHT22;44579;51.672;7.834;2022-07-06T03:20:51;15.70;61.80
58809;DHT22;44579;51.672;7.834;2022-07-06T03:23:20;15.60;62.00
58809;DHT22;44579;51.672;7.834;2022-07-06T03:25:47;15.50;62.10
58809;DHT22;44579;51.672;7.834;2022-07-06T03:28:14;15.50;62.10
58809;DHT22;44579;51.672;7.834;2022-07-06T03:30:41;15.50;62.20
58809;DHT22;44579;51.672;7.834;2022-07-06T03:33:08;15.40;62.40
58809;DHT22;44579;51.672;7.834;2022-07-06T03:35:34;15.50;62.20
58809;DHT22;44579;51.672;7.834;2022-07-06T03:38:04;15.50;62.10
58809;DHT22;44579;51.672;7.834;2022-07-06T03:40:32;15.50;62.00
58809;DHT22;44579;51.672;7.834;2022-07-06T03:42:59;15.50;61.90
58809;DHT22;44579;51.672;7.834;2022-07-06T03:45:29;15.50;62.10
58809;DHT22;44579;51.672;7.834;2022-07-06T03:47:58;15.60;62.10
58809;DHT22;44579;51.672;7.834;2022-07-06T03:50:25;15.60;62.00
58809;DHT22;44579;51.672;7.834;2022-07-06T03:52:52;15.70;61.90
58809;DHT22;44579;51.672;7.834;2022-07-06T03:55:19;15.70;62.10
58809;DHT22;44579;51.672;7.834;2022-07-06T03:57:51;15.80;62.20
58809;DHT22;44579;51.672;7.834;2022-07-06T04:00:21;15.80;62.30
58809;DHT22;44579;51.672;7.834;2022-07-06T04:02:55;15.80;62.20
58809;DHT22;44579;51.672;7.834;2022-07-06T04:05:27;15.90;62.10
58809;DHT22;44579;51.672;7.834;2022-07-06T04:07:54;15.90;62.00
58809;DHT22;44579;51.672;7.834;2022-07-06T04:10:26;15.90;62.00
58809;DHT22;44579;51.672;7.834;2022-07-06T04:12:55;15.80;62.20
58809;DHT22;44579;51.672;7.834;2022-07-06T04:15:23;15.80;62.40
58809;DHT22;44579;51.672;7.834;2022-07-06T04:17:50;15.80;62.40
58809;DHT22;44579;51.672;7.834;2022-07-06T04:20:41;15.80;62.40
58809;DHT22;44579;51.672;7.834;2022-07-06T04:23:08;15.70;62.30
58809;DHT22;44579;51.672;7.834;2022-07-06T04:25:35;15.80;62.30
58809;DHT22;44579;51.672;7.834;2022-07-06T04:28:02;15.80;62.30
58809;DHT22;44579;51.672;7.834;2022-07-06T04:30:31;15.80;62.20
58809;DHT22;44579;51.672;7.834;2022-07-06T04:32:58;15.80;62.20
58809;DHT22;44579;51.672;7.834;2022-07-06T04:35:27;15.80;62.20
58809;DHT22;44579;51.672;7.834;2022-07-06T04:37:55;15.80;62.00
58809;DHT22;44579;51.672;7.834;2022-07-06T04:40:24;15.80;62.00
58809;DHT22;44579;51.672;7.834;2022-07-06T04:42:56;15.80;62.00
58809;DHT22;44579;51.672;7.834;2022-07-06T04:45:24;15.90;61.90
58809;DHT22;44579;51.672;7.834;2022-07-06T04:47:51;16.00;61.90
58809;DHT22;44579;51.672;7.834;2022-07-06T04:50:19;16.00;61.80
58809;DHT22;44579;51.672;7.834;2022-07-06T04:52:49;16.10;61.70
58809;DHT22;44579;51.672;7.834;2022-07-06T04:55:16;16.10;61.70
58809;DHT22;44579;51.672;7.834;2022-07-06T04:57:43;16.20;61.70
58809;DHT22;44579;51.672;7.834;2022-07-06T05:00:12;16.20;62.10
58809;DHT22;44579;51.672;7.834;2022-07-06T05:02:40;16.30;62.10
58809;DHT22;44579;51.672;7.834;2022-07-06T05:05:07;16.40;62.20
58809;DHT22;44579;51.672;7.834;2022-07-06T05:07:37;16.60;62.10
58809;DHT22;44579;51.672;7.834;2022-07-06T05:10:11;17.00;62.40
58809;DHT22;44579;51.672;7.834;2022-07-06T05:12:41;17.40;62.60
58809;DHT22;44579;51.672;7.834;2022-07-06T05:15:09;17.90;63.10
58809;DHT22;44579;51.672;7.834;2022-07-06T05:17:36;18.20;63.20
58809;DHT22;44579;51.672;7.834;2022-07-06T05:20:05;18.70;63.30
58809;DHT22;44579;51.672;7.834;2022-07-06T05:22:35;19.10;63.00
58809;DHT22;44579;51.672;7.834;2022-07-06T05:25:11;19.40;62.70
58809;DHT22;44579;51.672;7.834;2022-07-06T05:27:39;19.70;62.60
58809;DHT22;44579;51.672;7.834;2022-07-06T05:30:07;19.90;62.50
58809;DHT22;44579;51.672;7.834;2022-07-06T05:32:35;20.10;62.70
58809;DHT22;44579;51.672;7.834;2022-07-06T05:35:02;20.20;63.10
58809;DHT22;44579;51.672;7.834;2022-07-06T05:37:50;20.40;63.50
58809;DHT22;44579;51.672;7.834;2022-07-06T05:40:17;20.50;63.30
58809;DHT22;44579;51.672;7.834;2022-07-06T05:42:43;20.40;63.00
58809;DHT22;44579;51.672;7.834;2022-07-06T05:45:10;20.40;62.90
58809;DHT22;44579;51.672;7.834;2022-07-06T05:47:37;20.40;62.80
58809;DHT22;44579;51.672;7.834;2022-07-06T05:50:23;20.30;62.60
58809;DHT22;44579;51.672;7.834;2022-07-06T05:53:02;20.10;62.30
58809;DHT22;44579;51.672;7.834;2022-07-06T05:55:42;20.00;62.00
58809;DHT22;44579;51.672;7.834;2022-07-06T05:58:09;19.90;61.80
58809;DHT22;44579;51.672;7.834;2022-07-06T06:00:37;19.70;61.80
58809;DHT22;44579;51.672;7.834;2022-07-06T06:03:12;19.60;61.90
58809;DHT22;44579;51.672;7.834;2022-07-06T06:05:40;19.70;62.20
58809;DHT22;44579;51.672;7.834;2022-07-06T06:08:09;20.00;61.80
58809;DHT22;44579;51.672;7.834;2022-07-06T06:10:36;20.30;61.90
58809;DHT22;44579;51.672;7.834;2022-07-06T06:13:07;20.70;61.50
58809;DHT22;44579;51.672;7.834;2022-07-06T06:15:35;20.70;60.80
58809;DHT22;44579;51.672;7.834;2022-07-06T06:18:03;20.60;60.50
58809;DHT22;44579;51.672;7.834;2022-07-06T06:20:33;20.50;60.40
58809;DHT22;44579;51.672;7.834;2022-07-06T06:23:00;20.50;60.20
58809;DHT22;44579;51.672;7.834;2022-07-06T06:25:38;20.30;60.10
58809;DHT22;44579;51.672;7.834;2022-07-06T06:28:08;20.10;59.90
58809;DHT22;44579;51.672;7.834;2022-07-06T06:30:36;19.90;60.00
58809;DHT22;44579;51.672;7.834;2022-07-06T06:33:17;19.80;60.10
58809;DHT22;44579;51.672;7.834;2022-07-06T06:35:50;19.70;59.90
58809;DHT22;44579;51.672;7.834;2022-07-06T06:38:22;19.70;60.70
58809;DHT22;44579;51.672;7.834;2022-07-06T06:40:53;19.70;60.10
58809;DHT22;44579;51.672;7.834;2022-07-06T06:43:20;19.70;59.40
58809;DHT22;44579;51.672;7.834;2022-07-06T06:45:57;19.60;59.20
58809;DHT22;44579;51.672;7.834;2022-07-06T06:48:24;19.40;59.30
58809;DHT22;44579;51.672;7.834;2022-07-06T06:50:51;19.40;59.40
58809;DHT22;44579;51.672;7.834;2022-07-06T06:53:17;19.30;59.10
58809;DHT22;44579;51.672;7.834;2022-07-06T06:55:44;19.30;59.20
58809;DHT22;44579;51.672;7.834;2022-07-06T06:58:11;19.30;59.00
58809;DHT22;44579;51.672;7.834;2022-07-06T07:00:38;19.40;58.90
58809;DHT22;44579;51.672;7.834;2022-07-06T07:03:05;19.30;58.70
58809;DHT22;44579;51.672;7.834;2022-07-06T07:05:32;19.30;58.80
58809;DHT22;44579;51.672;7.834;2022-07-06T07:07:58;19.40;58.70
58809;DHT22;44579;51.672;7.834;2022-07-06T07:10:31;19.40;58.60
58809;DHT22;44579;51.672;7.834;2022-07-06T07:12:58;19.40;58.50
58809;DHT22;44579;51.672;7.834;2022-07-06T07:15:25;19.50;58.30
58809;DHT22;44579;51.672;7.834;2022-07-06T07:17:51;19.60;58.10
58809;DHT22;44579;51.672;7.834;2022-07-06T07:20:18;19.70;57.90
58809;DHT22;44579;51.672;7.834;2022-07-06T07:22:45;19.70;57.90
58809;DHT22;44579;51.672;7.834;2022-07-06T07:25:12;19.90;57.80
58809;DHT22;44579;51.672;7.834;2022-07-06T07:27:39;19.90;57.70
58809;DHT22;44579;51.672;7.834;2022-07-06T07:30:06;20.00;57.60
58809;DHT22;44579;51.672;7.834;2022-07-06T07:32:33;20.10;57.30
58809;DHT22;44579;51.672;7.834;2022-07-06T07:35:00;20.00;57.10
58809;DHT22;44579;51.672;7.834;2022-07-06T07:37:28;19.90;57.20
58809;DHT22;44579;51.672;7.834;2022-07-06T07:39:55;19.70;57.20
58809;DHT22;44579;51.672;7.834;2022-07-06T07:42:21;19.70;57.00
58809;DHT22;44579;51.672;7.834;2022-07-06T07:44:48;19.60;57.20
58809;DHT22;44579;51.672;7.834;2022-07-06T07:47:15;19.70;57.20
58809;DHT22;44579;51.672;7.834;2022-07-06T07:49:42;19.80;57.00
58809;DHT22;44579;51.672;7.834;2022-07-06T07:52:09;19.70;56.90
58809;DHT22;44579;51.672;7.834;2022-07-06T07:54:36;19.70;56.70
58809;DHT22;44579;51.672;7.834;2022-07-06T07:57:09;19.80;56.70
58809;DHT22;44579;51.672;7.834;2022-07-06T07:59:36;19.80;56.60
58809;DHT22;44579;51.672;7.834;2022-07-06T08:02:03;19.90;56.60
58809;DHT22;44579;51.672;7.834;2022-07-06T08:04:30;19.80;56.50
58809;DHT22;44579;51.672;7.834;2022-07-06T08:06:58;19.60;56.60
58809;DHT22;44579;51.672;7.834;2022-07-06T08:09:27;19.60;56.80
58809;DHT22;44579;51.672;7.834;2022-07-06T08:11:54;19.50;56.70
58809;DHT22;44579;51.672;7.834;2022-07-06T08:14:21;19.60;56.80
58809;DHT22;44579;51.672;7.834;2022-07-06T08:16:48;19.60;56.70
58809;DHT22;44579;51.672;7.834;2022-07-06T08:19:15;19.60;56.50
58809;DHT22;44579;51.672;7.834;2022-07-06T08:21:42;19.60;56.50
58809;DHT22;44579;51.672;7.834;2022-07-06T08:24:09;19.60;56.40
58809;DHT22;44579;51.672;7.834;2022-07-06T08:26:36;19.50;56.30
58809;DHT22;44579;51.672;7.834;2022-07-06T08:29:03;19.50;56.40
58809;DHT22;44579;51.672;7.834;2022-07-06T08:31:30;19.40;56.50
58809;DHT22;44579;51.672;7.834;2022-07-06T08:34:18;19.40;56.60
58809;DHT22;44579;51.672;7.834;2022-07-06T08:36:44;19.30;56.90
58809;DHT22;44579;51.672;7.834;2022-07-06T08:39:11;19.40;56.90
58809;DHT22;44579;51.672;7.834;2022-07-06T08:41:41;19.40;56.40
58809;DHT22;44579;51.672;7.834;2022-07-06T08:44:08;19.40;56.30
58809;DHT22;44579;51.672;7.834;2022-07-06T08:46:38;19.50;56.30
58809;DHT22;44579;51.672;7.834;2022-07-06T08:49:07;19.60;56.10
58809;DHT22;44579;51.672;7.834;2022-07-06T08:51:35;19.50;55.90
58809;DHT22;44579;51.672;7.834;2022-07-06T08:54:03;19.40;56.20
58809;DHT22;44579;51.672;7.834;2022-07-06T08:56:30;19.40;56.40
58809;DHT22;44579;51.672;7.834;2022-07-06T08:58:57;19.50;56.30
58809;DHT22;44579;51.672;7.834;2022-07-06T09:01:24;19.40;56.00
58809;DHT22;44579;51.672;7.834;2022-07-06T09:03:52;19.20;56.30
58809;DHT22;44579;51.672;7.834;2022-07-06T09:06:24;19.00;56.60
58809;DHT22;44579;51.672;7.834;2022-07-06T09:08:54;19.00;56.90
58809;DHT22;44579;51.672;7.834;2022-07-06T09:11:22;19.20;56.70
58809;DHT22;44579;51.672;7.834;2022-07-06T09:13:51;19.20;56.30
58809;DHT22;44579;51.672;7.834;2022-07-06T09:16:24;19.20;55.90
58809;DHT22;44579;51.672;7.834;2022-07-06T09:19:06;19.20;56.30
58809;DHT22;44579;51.672;7.834;2022-07-06T09:21:34;19.50;56.10
58809;DHT22;44579;51.672;7.834;2022-07-06T09:24:09;19.50;55.30
58809;DHT22;44579;51.672;7.834;2022-07-06T09:26:36;19.40;55.50
58809;DHT22;44579;51.672;7.834;2022-07-06T09:29:04;19.50;55.10
58809;DHT22;44579;51.672;7.834;2022-07-06T09:31:32;19.50;55.00
58809;DHT22;44579;51.672;7.834;2022-07-06T09:34:05;19.70;54.70
58809;DHT22;44579;51.672;7.834;2022-07-06T09:36:40;19.70;54.40
58809;DHT22;44579;51.672;7.834;2022-07-06T09:39:18;19.80;54.40
58809;DHT22;44579;51.672;7.834;2022-07-06T09:41:50;19.90;53.90
58809;DHT22;44579;51.672;7.834;2022-07-06T09:44:38;19.90;53.50
58809;DHT22;44579;51.672;7.834;2022-07-06T09:47:10;20.10;53.60
58809;DHT22;44579;51.672;7.834;2022-07-06T09:49:39;20.40;53.10
58809;DHT22;44579;51.672;7.834;2022-07-06T09:52:08;20.60;52.80
58809;DHT22;44579;51.672;7.834;2022-07-06T09:54:35;20.80;52.60
58809;DHT22;44579;51.672;7.834;2022-07-06T09:57:03;20.90;52.20
58809;DHT22;44579;51.672;7.834;2022-07-06T09:59:35;21.20;52.10
58809;DHT22;44579;51.672;7.834;2022-07-06T10:02:03;21.30;51.60
58809;DHT22;44579;51.672;7.834;2022-07-06T10:04:31;21.50;51.50
58809;DHT22;44579;51.672;7.834;2022-07-06T10:06:59;21.60;51.00
58809;DHT22;44579;51.672;7.834;2022-07-06T10:09:27;21.60;50.80
58809;DHT22;44579;51.672;7.834;2022-07-06T10:11:59;21.60;51.00
58809;DHT22;44579;51.672;7.834;2022-07-06T10:14:34;21.60;51.30
58809;DHT22;44579;51.672;7.834;2022-07-06T10:17:03;21.70;51.40
58809;DHT22;44579;51.672;7.834;2022-07-06T10:19:32;21.70;51.20
58809;DHT22;44579;51.672;7.834;2022-07-06T10:22:02;21.60;50.30
58809;DHT22;44579;51.672;7.834;2022-07-06T10:24:29;21.50;49.80
58809;DHT22;44579;51.672;7.834;2022-07-06T10:26:57;21.50;50.20
58809;DHT22;44579;51.672;7.834;2022-07-06T10:29:25;21.50;49.50
58809;DHT22;44579;51.672;7.834;2022-07-06T10:31:52;21.30;49.00
58809;DHT22;44579;51.672;7.834;2022-07-06T10:34:20;21.30;49.50
58809;DHT22;44579;51.672;7.834;2022-07-06T10:36:52;21.40;49.50
58809;DHT22;44579;51.672;7.834;2022-07-06T10:39:36;21.60;49.50
58809;DHT22;44579;51.672;7.834;2022-07-06T10:42:45;21.80;49.10
58809;DHT22;44579;51.672;7.834;2022-07-06T10:45:14;22.00;49.10
58809;DHT22;44579;51.672;7.834;2022-07-06T10:47:42;22.20;49.90
58809;DHT22;44579;51.672;7.834;2022-07-06T10:50:11;22.20;48.70
58809;DHT22;44579;51.672;7.834;2022-07-06T10:53:02;22.30;48.40
58809;DHT22;44579;51.672;7.834;2022-07-06T10:55:32;22.10;47.50
58809;DHT22;44579;51.672;7.834;2022-07-06T10:58:00;22.00;47.80
58809;DHT22;44579;51.672;7.834;2022-07-06T11:00:42;21.90;48.00
58809;DHT22;44579;51.672;7.834;2022-07-06T11:06:01;21.50;46.30
58809;DHT22;44579;51.672;7.834;2022-07-06T11:14:04;21.10;46.30
58809;DHT22;44579;51.672;7.834;2022-07-06T11:16:33;20.90;46.60
58809;DHT22;44579;51.672;7.834;2022-07-06T11:19:08;20.90;46.60
58809;DHT22;44579;51.672;7.834;2022-07-06T11:24:10;21.20;46.50
58809;DHT22;44579;51.672;7.834;2022-07-06T11:26:38;21.30;46.30
58809;DHT22;44579;51.672;7.834;2022-07-06T11:29:08;21.50;46.30
58809;DHT22;44579;51.672;7.834;2022-07-06T11:31:37;21.80;46.00
58809;DHT22;44579;51.672;7.834;2022-07-06T11:34:06;21.90;46.10
58809;DHT22;44579;51.672;7.834;2022-07-06T11:36:34;22.10;46.10
58809;DHT22;44579;51.672;7.834;2022-07-06T11:39:09;22.30;46.00
58809;DHT22;44579;51.672;7.834;2022-07-06T11:41:36;22.40;45.80
58809;DHT22;44579;51.672;7.834;2022-07-06T11:44:03;22.40;45.70
58809;DHT22;44579;51.672;7.834;2022-07-06T11:46:32;22.40;45.70
58809;DHT22;44579;51.672;7.834;2022-07-06T11:51:30;22.50;45.80
58809;DHT22;44579;51.672;7.834;2022-07-06T11:53:59;22.50;45.40
58809;DHT22;44579;51.672;7.834;2022-07-06T11:56:28;22.50;45.10
58809;DHT22;44579;51.672;7.834;2022-07-06T11:58:57;22.40;44.50
58809;DHT22;44579;51.672;7.834;2022-07-06T12:01:26;22.40;44.70
58809;DHT22;44579;51.672;7.834;2022-07-06T12:03:57;22.30;43.90
58809;DHT22;44579;51.672;7.834;2022-07-06T12:06:26;22.10;43.70
58809;DHT22;44579;51.672;7.834;2022-07-06T12:08:55;22.00;43.50
58809;DHT22;44579;51.672;7.834;2022-07-06T12:11:31;21.80;43.80
58809;DHT22;44579;51.672;7.834;2022-07-06T12:14:00;21.90;44.10
58809;DHT22;44579;51.672;7.834;2022-07-06T12:16:36;22.10;44.00
58809;DHT22;44579;51.672;7.834;2022-07-06T12:19:04;22.20;44.00
58809;DHT22;44579;51.672;7.834;2022-07-06T12:21:34;22.40;44.00
58809;DHT22;44579;51.672;7.834;2022-07-06T12:24:01;22.50;43.90
58809;DHT22;44579;51.672;7.834;2022-07-06T12:26:28;22.60;43.30
58809;DHT22;44579;51.672;7.834;2022-07-06T12:29:05;22.50;43.20
58809;DHT22;44579;51.672;7.834;2022-07-06T12:31:40;22.30;43.40
58809;DHT22;44579;51.672;7.834;2022-07-06T12:36:50;22.30;43.90
58809;DHT22;44579;51.672;7.834;2022-07-06T12:39:22;22.40;43.90
58809;DHT22;44579;51.672;7.834;2022-07-06T12:41:51;22.40;43.90
58809;DHT22;44579;51.672;7.834;2022-07-06T12:44:23;22.40;44.00
58809;DHT22;44579;51.672;7.834;2022-07-06T12:47:01;22.40;44.00
58809;DHT22;44579;51.672;7.834;2022-07-06T12:49:28;22.40;44.10
58809;DHT22;44579;51.672;7.834;2022-07-06T12:52:10;22.40;44.10
58809;DHT22;44579;51.672;7.834;2022-07-06T12:54:43;22.40;43.70
58809;DHT22;44579;51.672;7.834;2022-07-06T12:57:19;22.30;43.40
58809;DHT22;44579;51.672;7.834;2022-07-06T12:59:47;22.20;43.60
58809;DHT22;44579;51.672;7.834;2022-07-06T13:05:13;22.10;43.80
58809;DHT22;44579;51.672;7.834;2022-07-06T13:07:49;22.20;44.60
58809;DHT22;44579;51.672;7.834;2022-07-06T13:10:16;22.40;43.90
58809;DHT22;44579;51.672;7.834;2022-07-06T13:12:44;22.60;43.60
58809;DHT22;44579;51.672;7.834;2022-07-06T13:15:11;22.70;43.40
58809;DHT22;44579;51.672;7.834;2022-07-06T13:17:38;22.80;43.40
58809;DHT22;44579;51.672;7.834;2022-07-06T13:20:06;22.90;43.60
58809;DHT22;44579;51.672;7.834;2022-07-06T13:22:33;22.80;43.60
58809;DHT22;44579;51.672;7.834;2022-07-06T13:25:00;22.80;43.80
58809;DHT22;44579;51.672;7.834;2022-07-06T13:27:27;22.90;43.80
58809;DHT22;44579;51.672;7.834;2022-07-06T13:29:54;23.00;43.70
58809;DHT22;44579;51.672;7.834;2022-07-06T13:32:21;23.00;43.00
58809;DHT22;44579;51.672;7.834;2022-07-06T13:34:48;22.70;42.80
58809;DHT22;44579;51.672;7.834;2022-07-06T13:37:15;22.60;43.20
58809;DHT22;44579;51.672;7.834;2022-07-06T13:39:42;22.70;43.40
58809;DHT22;44579;51.672;7.834;2022-07-06T13:42:09;22.70;43.20
58809;DHT22;44579;51.672;7.834;2022-07-06T13:44:36;22.80;43.10
58809;DHT22;44579;51.672;7.834;2022-07-06T13:47:03;22.90;43.10
58809;DHT22;44579;51.672;7.834;2022-07-06T13:49:30;23.00;43.10
58809;DHT22;44579;51.672;7.834;2022-07-06T13:51:58;23.10;42.80
58809;DHT22;44579;51.672;7.834;2022-07-06T13:54:30;23.10;42.40
58809;DHT22;44579;51.672;7.834;2022-07-06T13:57:02;23.10;42.50
58809;DHT22;44579;51.672;7.834;2022-07-06T13:59:29;23.10;42.10
58809;DHT22;44579;51.672;7.834;2022-07-06T14:01:56;23.20;42.10
58809;DHT22;44579;51.672;7.834;2022-07-06T14:04:24;23.20;42.00
58809;DHT22;44579;51.672;7.834;2022-07-06T14:06:50;23.20;42.20
58809;DHT22;44579;51.672;7.834;2022-07-06T14:09:17;23.10;41.70
58809;DHT22;44579;51.672;7.834;2022-07-06T14:11:44;23.00;42.00
58809;DHT22;44579;51.672;7.834;2022-07-06T14:14:11;23.00;41.90
58809;DHT22;44579;51.672;7.834;2022-07-06T14:16:38;23.00;41.90
58809;DHT22;44579;51.672;7.834;2022-07-06T14:19:07;22.80;41.60
58809;DHT22;44579;51.672;7.834;2022-07-06T14:21:34;22.80;42.00
58809;DHT22;44579;51.672;7.834;2022-07-06T14:24:01;22.80;41.90
58809;DHT22;44579;51.672;7.834;2022-07-06T14:26:28;22.90;42.10
58809;DHT22;44579;51.672;7.834;2022-07-06T14:28:55;23.00;42.00
58809;DHT22;44579;51.672;7.834;2022-07-06T14:31:22;23.20;41.70
58809;DHT22;44579;51.672;7.834;2022-07-06T14:33:49;23.20;41.90
58809;DHT22;44579;51.672;7.834;2022-07-06T14:36:17;23.20;41.80
58809;DHT22;44579;51.672;7.834;2022-07-06T14:38:44;23.30;41.80
58809;DHT22;44579;51.672;7.834;2022-07-06T14:41:10;23.40;41.70
58809;DHT22;44579;51.672;7.834;2022-07-06T14:43:37;23.50;41.60
58809;DHT22;44579;51.672;7.834;2022-07-06T14:46:04;23.60;41.40
58809;DHT22;44579;51.672;7.834;2022-07-06T14:48:32;23.60;40.60
58809;DHT22;44579;51.672;7.834;2022-07-06T14:50:58;23.50;40.60
58809;DHT22;44579;51.672;7.834;2022-07-06T14:53:26;23.40;40.40
58809;DHT22;44579;51.672;7.834;2022-07-06T14:55:54;23.30;40.70
58809;DHT22;44579;51.672;7.834;2022-07-06T14:58:20;23.30;40.90
58809;DHT22;44579;51.672;7.834;2022-07-06T15:00:49;23.30;40.50
58809;DHT22;44579;51.672;7.834;2022-07-06T15:03:24;23.10;40.50
58809;DHT22;44579;51.672;7.834;2022-07-06T15:05:51;23.20;40.80
58809;DHT22;44579;51.672;7.834;2022-07-06T15:08:18;23.10;40.70
58809;DHT22;44579;51.672;7.834;2022-07-06T15:10:45;23.10;40.90
58809;DHT22;44579;51.672;7.834;2022-07-06T15:13:12;23.20;40.90
58809;DHT22;44579;51.672;7.834;2022-07-06T15:15:40;23.30;40.90
58809;DHT22;44579;51.672;7.834;2022-07-06T15:18:23;23.30;40.80
58809;DHT22;44579;51.672;7.834;2022-07-06T15:20:50;23.40;40.70
58809;DHT22;44579;51.672;7.834;2022-07-06T15:23:17;23.50;40.70
58809;DHT22;44579;51.672;7.834;2022-07-06T15:25:44;23.50;40.70
58809;DHT22;44579;51.672;7.834;2022-07-06T15:28:20;23.50;40.50
58809;DHT22;44579;51.672;7.834;2022-07-06T15:30:47;23.40;40.60
58809;DHT22;44579;51.672;7.834;2022-07-06T15:33:14;23.40;40.50
58809;DHT22;44579;51.672;7.834;2022-07-06T15:35:41;23.50;40.60
58809;DHT22;44579;51.672;7.834;2022-07-06T15:38:08;23.60;40.40
58809;DHT22;44579;51.672;7.834;2022-07-06T15:40:35;23.50;40.30
58809;DHT22;44579;51.672;7.834;2022-07-06T15:43:07;23.50;40.40
58809;DHT22;44579;51.672;7.834;2022-07-06T15:45:34;23.50;40.30
58809;DHT22;44579;51.672;7.834;2022-07-06T15:48:03;23.40;40.20
58809;DHT22;44579;51.672;7.834;2022-07-06T15:50:30;23.30;40.30
58809;DHT22;44579;51.672;7.834;2022-07-06T15:52:57;23.10;40.50
58809;DHT22;44579;51.672;7.834;2022-07-06T15:55:24;23.10;40.90
58809;DHT22;44579;51.672;7.834;2022-07-06T15:57:54;23.10;40.70
58809;DHT22;44579;51.672;7.834;2022-07-06T16:00:20;23.10;40.50